Time;durP1;ratioP1;P1;durP2;ratioP2;P2;SDS_P1;SDS_P2;PMS_P1;PMS_P2;Temp;Humidity;BMP_temperature;BMP_pressure;BME280_temperature;BME280_humidity;BME280_pressure;Samples;Min_cycle;Max_cycle;Signal;HPM_P1;HPM_P2
2021/10/03 00:02:52;;;;;;;;;75.50;60.75;;;;;10.92;53.00;102463.63;6276131;22;11504;-72
2021/10/03 00:05:51;;;;;;;;;62.75;50.25;;;;;10.91;52.92;102458.41;6276034;22;11526;-72
2021/10/03 00:08:47;;;;;;;;;71.50;55.75;;;;;10.82;53.30;102459.03;6275969;22;12297;-74
2021/10/03 00:11:44;;;;;;;;;46.50;42.00;;;;;10.93;52.97;102453.38;6276166;22;11629;-73
2021/10/03 00:14:40;;;;;;;;;60.25;47.25;;;;;10.81;53.15;102460.16;6276182;22;11536;-72
2021/10/03 00:17:37;;;;;;;;;62.50;49.50;;;;;10.79;53.09;102454.03;6276019;22;12293;-73
2021/10/03 00:20:34;;;;;;;;;53.75;44.75;;;;;10.80;52.94;102455.69;6273988;22;12352;-73
2021/10/03 00:23:31;;;;;;;;;59.75;46.50;;;;;10.74;53.29;102456.06;6273696;22;11549;-74
2021/10/03 00:26:27;;;;;;;;;52.75;43.50;;;;;10.74;53.18;102459.66;6292974;22;12208;-73
2021/10/03 00:29:23;;;;;;;;;62.00;51.75;;;;;10.74;53.31;102453.28;6275952;22;11546;-73
2021/10/03 00:32:18;;;;;;;;;38.75;36.50;;;;;10.54;54.00;102451.50;6275897;22;11556;-73
2021/10/03 00:35:14;;;;;;;;;48.50;40.50;;;;;10.66;53.87;102451.97;6276751;22;11546;-71
2021/10/03 00:38:10;;;;;;;;;29.75;29.50;;;;;10.53;54.03;102449.84;6275624;22;11544;-72
2021/10/03 00:41:05;;;;;;;;;24.25;23.00;;;;;10.50;54.20;102454.00;6276033;22;11623;-71
2021/10/03 00:44:01;;;;;;;;;25.00;23.50;;;;;10.49;54.25;102448.75;6275791;22;11556;-71
2021/10/03 00:46:58;;;;;;;;;19.75;18.50;;;;;10.54;54.38;102452.31;6275613;22;11532;-72
2021/10/03 00:49:53;;;;;;;;;16.50;16.50;;;;;10.43;54.50;102455.44;6273742;22;11444;-72
2021/10/03 00:52:49;;;;;;;;;22.00;22.00;;;;;10.57;54.21;102456.44;6275800;22;11508;-72
2021/10/03 00:55:45;;;;;;;;;17.25;17.00;;;;;10.60;54.64;102452.28;6275816;22;11440;-71
2021/10/03 00:58:42;;;;;;;;;21.00;20.25;;;;;10.51;54.62;102455.66;6275861;22;11484;-73
2021/10/03 01:01:38;;;;;;;;;20.25;20.25;;;;;10.41;54.86;102466.78;6292812;22;11454;-72
2021/10/03 01:04:34;;;;;;;;;24.00;22.50;;;;;10.50;54.69;102470.59;6273435;22;11431;-73
2021/10/03 01:07:29;;;;;;;;;24.50;24.50;;;;;10.50;54.56;102464.22;6273590;22;11473;-73
2021/10/03 01:10:26;;;;;;;;;27.25;26.25;;;;;10.57;54.79;102464.72;6275746;22;11453;-71
2021/10/03 01:13:23;;;;;;;;;36.75;32.75;;;;;10.56;54.85;102454.78;6273535;22;11440;-73
2021/10/03 01:16:19;;;;;;;;;40.75;36.75;;;;;10.45;55.29;102465.09;6273312;22;11514;-72
2021/10/03 01:19:15;;;;;;;;;32.75;31.50;;;;;10.40;55.46;102461.53;6273410;22;11561;-73
2021/10/03 01:22:11;;;;;;;;;36.75;35.00;;;;;10.48;55.57;102467.28;6273469;22;11513;-74
2021/10/03 01:25:11;;;;;;;;;29.25;29.25;;;;;10.40;55.68;102456.84;6275645;22;11511;-72
2021/10/03 01:28:08;;;;;;;;;30.75;30.75;;;;;10.51;55.81;102460.38;6275441;22;11498;-72
2021/10/03 01:31:09;;;;;;;;;33.75;31.50;;;;;10.49;55.83;102454.28;6273032;22;12208;-72
2021/10/03 01:34:05;;;;;;;;;42.25;39.25;;;;;10.43;56.03;102466.53;6273470;22;11450;-73
2021/10/03 01:37:00;;;;;;;;;56.50;46.25;;;;;10.43;56.30;102458.22;6273031;22;11546;-71
2021/10/03 01:39:57;;;;;;;;;48.75;41.25;;;;;10.45;55.98;102464.28;6292681;22;12222;-73
2021/10/03 01:42:53;;;;;;;;;43.50;40.00;;;;;10.38;56.56;102463.78;6275509;22;11519;-72
2021/10/03 01:45:49;;;;;;;;;36.25;35.50;;;;;10.37;56.38;102457.41;6275606;22;11641;-73
2021/10/03 01:48:46;;;;;;;;;31.25;31.00;;;;;10.38;56.89;102455.47;6275603;22;11524;-73
2021/10/03 01:51:42;;;;;;;;;24.00;24.00;;;;;10.39;56.83;102454.38;6273392;22;11586;-71
2021/10/03 01:54:39;;;;;;;;;29.75;27.00;;;;;10.33;56.90;102459.09;6275577;22;11472;-71
2021/10/03 01:57:35;;;;;;;;;22.00;21.75;;;;;10.32;56.96;102451.91;6275433;22;11570;-72
2021/10/03 02:00:31;;;;;;;;;21.00;21.00;;;;;10.32;57.37;102454.69;6275329;22;11491;-70
2021/10/03 02:03:26;;;;;;;;;22.00;21.00;;;;;10.26;57.12;102456.63;6275494;22;11471;-72
2021/10/03 02:06:23;;;;;;;;;21.50;21.50;;;;;10.27;57.35;102457.47;6275453;22;11447;-72
2021/10/03 02:09:21;;;;;;;;;20.50;20.50;;;;;10.29;57.39;102452.50;6275381;22;11448;-71
2021/10/03 02:12:17;;;;;;;;;18.75;18.75;;;;;10.22;57.34;102450.03;6275237;22;12244;-72
2021/10/03 02:15:13;;;;;;;;;24.75;24.00;;;;;10.12;57.78;102450.09;6292863;22;11447;-71
2021/10/03 02:18:11;;;;;;;;;24.75;24.25;;;;;10.07;57.86;102443.75;6273185;22;11674;-72
2021/10/03 02:21:09;;;;;;;;;26.75;25.25;;;;;10.06;58.15;102451.22;6275350;22;11472;-72
2021/10/03 02:24:11;;;;;;;;;25.50;24.50;;;;;10.02;58.46;102452.88;6275263;22;11491;-71
2021/10/03 02:27:06;;;;;;;;;28.75;28.00;;;;;10.08;58.00;102454.50;6275183;22;11628;-71
2021/10/03 02:30:05;;;;;;;;;27.25;26.00;;;;;10.14;58.02;102447.84;6273437;22;11471;-71
2021/10/03 02:33:01;;;;;;;;;29.00;29.00;;;;;10.02;58.46;102448.19;6277159;22;11550;-73
2021/10/03 02:35:58;;;;;;;;;26.25;25.00;;;;;10.03;58.47;102449.81;6277305;22;11557;-71
2021/10/03 02:38:54;;;;;;;;;27.50;26.50;;;;;10.03;58.33;102452.59;6277014;22;11521;-71
2021/10/03 02:41:49;;;;;;;;;23.00;23.00;;;;;10.06;58.50;102451.22;6277197;22;11453;-71
2021/10/03 02:44:46;;;;;;;;;23.50;23.50;;;;;10.22;58.30;102454.72;6276998;22;11478;-71
2021/10/03 02:47:42;;;;;;;;;24.50;24.25;;;;;10.04;58.86;102447.88;6274843;22;11494;-71
2021/10/03 02:50:38;;;;;;;;;33.25;33.25;;;;;9.99;58.85;102442.41;6277082;22;11470;-71
2021/10/03 02:53:33;;;;;;;;;38.50;33.00;;;;;10.09;58.77;102435.97;6276894;22;11517;-71
2021/10/03 02:56:30;;;;;;;;;51.25;44.00;;;;;10.03;59.01;102440.69;6276754;22;11523;-72
2021/10/03 02:59:26;;;;;;;;;35.75;32.75;;;;;9.89;59.49;102442.44;6274806;22;11524;-72
2021/10/03 03:02:21;;;;;;;;;35.00;34.75;;;;;9.92;59.50;102447.41;6276701;22;12253;-71
2021/10/03 03:05:17;;;;;;;;;34.75;34.50;;;;;9.98;59.53;102440.75;6276953;22;11527;-73
2021/10/03 03:08:12;;;;;;;;;37.50;36.50;;;;;9.99;59.40;102434.94;6293884;22;12265;-72
2021/10/03 03:11:08;;;;;;;;;34.75;34.75;;;;;9.98;59.22;102438.00;6274401;22;11519;-73
2021/10/03 03:14:04;;;;;;;;;33.50;33.50;;;;;10.07;58.98;102450.09;6276733;22;11549;-71
2021/10/03 03:17:14;;;;;;;;;43.75;39.00;;;;;10.10;58.94;102452.28;6276632;22;12231;-73
2021/10/03 03:20:10;;;;;;;;;46.25;40.75;;;;;10.06;58.94;102442.91;6293824;22;11551;-73
2021/10/03 03:23:06;;;;;;;;;35.00;30.50;;;;;10.02;59.06;102442.66;6293802;22;11605;-71
2021/10/03 03:26:01;;;;;;;;;34.75;34.25;;;;;9.95;59.51;102446.84;6276470;22;11570;-71
2021/10/03 03:28:57;;;;;;;;;34.75;34.75;;;;;9.88;59.67;102436.09;6276672;22;11538;-73
2021/10/03 03:31:54;;;;;;;;;36.25;35.75;;;;;9.95;59.88;102444.06;6276761;22;11615;-71
2021/10/03 03:34:50;;;;;;;;;29.75;28.25;;;;;9.92;60.48;102450.19;6276796;22;11549;-71
2021/10/03 03:37:46;;;;;;;;;40.25;36.50;;;;;9.97;59.87;102448.22;6293271;22;11514;-70
2021/10/03 03:40:41;;;;;;;;;40.25;38.50;;;;;9.84;60.69;102443.31;6274401;22;11516;-71
2021/10/03 03:43:37;;;;;;;;;38.50;37.50;;;;;9.62;61.13;102460.25;6276477;22;11648;-71
2021/10/03 03:46:32;;;;;;;;;32.00;31.25;;;;;9.80;60.81;102457.94;6276232;22;11521;-72
2021/10/03 03:49:28;;;;;;;;;29.75;28.25;;;;;9.90;60.08;102446.88;6276480;22;11696;-73
2021/10/03 03:52:24;;;;;;;;;33.50;33.25;;;;;9.85;60.13;102442.19;6276192;22;11510;-72
2021/10/03 03:55:19;;;;;;;;;29.00;28.25;;;;;9.79;60.05;102443.31;6276199;22;11636;-72
2021/10/03 03:58:15;;;;;;;;;39.00;38.00;;;;;9.88;59.72;102438.84;6275644;22;11508;-72
2021/10/03 04:01:10;;;;;;;;;49.25;40.75;;;;;10.01;59.95;102446.53;6275905;22;12311;-72
2021/10/03 04:04:06;;;;;;;;;37.00;33.00;;;;;9.92;60.06;102450.19;6275618;22;11569;-72
2021/10/03 04:07:02;;;;;;;;;41.50;36.25;;;;;10.11;59.31;102453.09;6276026;22;11523;-71
2021/10/03 04:09:58;;;;;;;;;23.75;23.25;;;;;10.07;59.25;102460.34;6276097;22;11652;-73
2021/10/03 04:12:54;;;;;;;;;34.25;32.75;;;;;10.23;59.24;102473.00;6293506;22;11471;-71
2021/10/03 04:15:50;;;;;;;;;39.00;36.00;;;;;10.27;58.97;102461.09;6275955;22;11606;-71
2021/10/03 04:18:45;;;;;;;;;33.50;32.25;;;;;10.26;58.59;102466.88;6274438;22;11505;-71
2021/10/03 04:21:41;;;;;;;;;23.50;23.50;;;;;10.26;58.57;102464.09;6275588;22;11507;-71
2021/10/03 04:24:36;;;;;;;;;28.50;27.25;;;;;10.29;58.72;102464.38;6275883;22;11503;-71
2021/10/03 04:27:32;;;;;;;;;23.25;22.50;;;;;10.30;58.62;102471.56;6273434;22;12414;-70
2021/10/03 04:30:27;;;;;;;;;29.75;27.75;;;;;10.26;58.69;102473.22;6275819;22;12190;-71
2021/10/03 04:33:23;;;;;;;;;20.25;20.25;;;;;10.22;58.55;102463.88;6275970;22;11459;-71
2021/10/03 04:36:18;;;;;;;;;29.50;27.75;;;;;10.42;58.25;102453.78;6275585;22;11532;-73
2021/10/03 04:39:15;;;;;;;;;21.50;21.50;;;;;10.42;58.26;102459.31;6275604;22;11721;-70
2021/10/03 04:42:11;;;;;;;;;19.50;19.50;;;;;10.47;58.17;102467.59;6275877;22;11537;-71
2021/10/03 04:45:07;;;;;;;;;18.25;18.25;;;;;10.62;57.42;102464.72;6275246;22;11567;-71
2021/10/03 04:48:03;;;;;;;;;21.50;18.25;;;;;10.76;57.38;102465.72;6275221;22;11543;-72
2021/10/03 04:50:59;;;;;;;;;17.00;17.00;;;;;10.74;56.97;102467.94;6292477;22;11489;-71
2021/10/03 04:53:54;;;;;;;;;19.75;19.50;;;;;10.83;57.17;102470.91;6275594;22;11444;-72
2021/10/03 04:56:50;;;;;;;;;30.75;29.50;;;;;10.86;56.65;102476.69;6275786;22;11560;-74
2021/10/03 04:59:45;;;;;;;;;24.25;24.25;;;;;10.98;56.58;102470.78;6275577;22;11447;-74
2021/10/03 05:02:41;;;;;;;;;20.75;20.25;;;;;11.14;55.96;102463.16;6273501;22;11495;-72
2021/10/03 05:05:37;;;;;;;;;37.25;33.75;;;;;11.22;56.02;102457.00;6273421;22;11541;-73
2021/10/03 05:08:33;;;;;;;;;33.25;32.00;;;;;11.46;55.80;102470.88;6275777;22;11475;-71
2021/10/03 05:11:28;;;;;;;;;32.50;28.50;;;;;11.34;55.30;102467.66;6275454;22;11499;-72
2021/10/03 05:14:24;;;;;;;;;23.75;22.50;;;;;11.40;55.86;102470.09;6275394;22;12288;-72
2021/10/03 05:17:20;;;;;;;;;26.50;26.50;;;;;11.58;55.54;102476.84;6273396;22;11465;-72
2021/10/03 05:20:15;;;;;;;;;21.25;21.25;;;;;11.67;55.84;102475.06;6275417;22;11482;-73
2021/10/03 05:23:11;;;;;;;;;23.00;23.00;;;;;11.67;55.51;102471.47;6273161;22;11492;-73
2021/10/03 05:26:06;;;;;;;;;32.25;29.75;;;;;11.79;55.29;102480.19;6275695;22;11443;-73
2021/10/03 05:29:02;;;;;;;;;30.00;30.00;;;;;11.83;55.00;102478.50;6272949;22;11593;-72
2021/10/03 05:31:58;;;;;;;;;52.75;43.75;;;;;11.84;54.61;102471.84;6273469;22;11586;-73
2021/10/03 05:34:54;;;;;;;;;30.75;28.25;;;;;12.00;53.91;102477.19;6276044;22;11463;-72
2021/10/03 05:37:49;;;;;;;;;24.00;23.75;;;;;12.20;53.31;102476.94;6274953;22;12201;-72
2021/10/03 05:40:45;;;;;;;;;27.50;24.00;;;;;12.41;52.11;102474.66;6275655;22;11476;-72
2021/10/03 05:43:40;;;;;;;;;34.75;33.25;;;;;12.51;51.74;102480.09;6275343;22;12225;-72
2021/10/03 05:46:36;;;;;;;;;31.75;30.75;;;;;12.69;52.27;102476.47;6275283;22;12214;-71
2021/10/03 05:49:32;;;;;;;;;35.00;34.25;;;;;12.77;51.76;102486.06;6275586;22;11471;-72
2021/10/03 05:52:27;;;;;;;;;21.75;19.75;;;;;13.11;50.64;102476.59;6275515;22;11476;-71
2021/10/03 05:55:23;;;;;;;;;18.75;18.75;;;;;13.17;50.89;102481.75;6274802;22;10966;-71
2021/10/03 05:58:20;;;;;;;;;25.00;24.50;;;;;13.27;50.45;102486.34;6275504;22;10924;-72
2021/10/03 06:01:15;;;;;;;;;20.00;18.75;;;;;13.24;49.68;102481.41;6292579;22;10930;-72
2021/10/03 06:04:11;;;;;;;;;23.50;23.00;;;;;13.23;49.41;102488.09;6275268;22;10642;-71
2021/10/03 06:07:07;;;;;;;;;20.00;20.00;;;;;13.45;49.05;102485.44;6274721;22;10925;-72
2021/10/03 06:10:05;;;;;;;;;23.25;23.25;;;;;13.55;48.98;102493.59;6275453;22;10590;-72
2021/10/03 06:13:01;;;;;;;;;16.75;16.75;;;;;13.71;48.89;102494.09;6277059;22;10794;-72
2021/10/03 06:15:58;;;;;;;;;16.75;16.50;;;;;13.69;48.77;102498.34;6294336;22;10551;-71
2021/10/03 06:18:54;;;;;;;;;21.75;21.75;;;;;13.44;48.49;102481.03;6276885;22;10526;-71
2021/10/03 06:21:49;;;;;;;;;32.25;30.50;;;;;13.42;48.78;102474.97;6294536;22;10832;-74
2021/10/03 06:24:45;;;;;;;;;36.50;34.00;;;;;13.46;49.31;102481.53;6277317;22;11135;-70
2021/10/03 06:27:40;;;;;;;;;22.00;20.00;;;;;13.50;48.94;102482.59;6277196;22;10966;-72
2021/10/03 06:30:36;;;;;;;;;15.50;14.50;;;;;13.57;49.07;102479.38;6277356;22;10437;-73
2021/10/03 06:33:32;;;;;;;;;17.75;17.75;;;;;13.59;49.58;102480.72;6293887;22;10608;-72
2021/10/03 06:36:27;;;;;;;;;26.00;25.00;;;;;13.54;48.58;102475.25;6274918;22;10622;-72
2021/10/03 06:39:23;;;;;;;;;22.75;22.75;;;;;13.82;48.28;102480.84;6277050;22;10683;-71
2021/10/03 06:42:19;;;;;;;;;21.00;19.75;;;;;13.75;47.68;102475.69;6276980;22;10357;-73
2021/10/03 06:45:14;;;;;;;;;19.00;19.00;;;;;13.98;48.35;102476.59;6276514;22;10647;-74
2021/10/03 06:48:11;;;;;;;;;23.25;23.25;;;;;14.20;47.08;102484.19;6276934;22;10599;-72
2021/10/03 06:51:06;;;;;;;;;19.00;15.75;;;;;13.91;47.15;102478.97;6274580;22;10610;-71
2021/10/03 06:54:03;;;;;;;;;14.75;14.75;;;;;14.09;47.84;102475.22;6276426;22;10432;-71
2021/10/03 06:56:59;;;;;;;;;29.50;21.00;;;;;14.34;46.71;102473.03;6274711;22;10273;-73
2021/10/03 06:59:55;;;;;;;;;19.75;14.75;;;;;14.42;46.66;102472.28;6276273;22;11095;-72
2021/10/03 07:02:51;;;;;;;;;22.00;21.00;;;;;14.57;47.13;102473.91;6293182;22;10406;-71
2021/10/03 07:05:46;;;;;;;;;15.00;15.00;;;;;14.38;46.86;102476.81;6275920;22;10380;-72
2021/10/03 07:08:43;;;;;;;;;13.00;12.25;;;;;14.73;46.54;102476.03;6276919;22;10047;-73
2021/10/03 07:11:38;;;;;;;;;12.00;12.00;;;;;14.64;46.47;102486.25;6276914;22;9990;-72
2021/10/03 07:14:34;;;;;;;;;15.75;15.75;;;;;14.60;46.64;102479.69;6276000;22;10036;-73
2021/10/03 07:17:30;;;;;;;;;15.00;15.00;;;;;14.47;46.79;102486.09;6276535;22;10081;-71
2021/10/03 07:20:27;;;;;;;;;19.25;19.25;;;;;14.70;47.12;102479.44;6276835;22;10199;-74
2021/10/03 07:23:23;;;;;;;;;20.00;20.00;;;;;14.77;46.97;102479.00;6276601;22;10234;-71
2021/10/03 07:26:19;;;;;;;;;18.00;18.00;;;;;14.95;46.19;102480.78;6276542;22;10330;-72
2021/10/03 07:29:15;;;;;;;;;22.25;21.75;;;;;14.89;46.66;102484.00;6276856;22;9990;-71
2021/10/03 07:32:10;;;;;;;;;21.25;21.25;;;;;15.27;46.30;102468.50;6276623;22;10185;-71
2021/10/03 07:35:06;;;;;;;;;14.75;14.75;;;;;15.47;46.22;102474.66;6274524;22;10008;-72
2021/10/03 07:38:02;;;;;;;;;14.75;14.75;;;;;15.32;45.55;102472.28;6275919;22;9831;-72
2021/10/03 07:40:58;;;;;;;;;19.00;19.00;;;;;15.41;45.91;102470.34;6275770;22;9708;-72
2021/10/03 07:43:54;;;;;;;;;20.00;20.00;;;;;15.54;46.10;102472.22;6276323;22;10515;-72
2021/10/03 07:46:50;;;;;;;;;15.33;15.33;;;;;15.66;45.95;102472.50;6275800;22;9702;-72
2021/10/03 07:49:46;;;;;;;;;19.00;19.00;;;;;15.68;46.31;102464.63;6274073;22;9327;-71
2021/10/03 07:52:41;;;;;;;;;20.25;17.25;;;;;15.60;46.05;102465.38;6275844;22;9756;-71
2021/10/03 07:55:37;;;;;;;;;19.25;18.50;;;;;15.40;46.41;102468.72;6276353;22;9775;-71
2021/10/03 07:58:32;;;;;;;;;16.00;16.00;;;;;15.49;46.09;102466.81;6274409;22;9822;-71
2021/10/03 08:01:28;;;;;;;;;12.00;12.00;;;;;16.28;45.08;102480.69;6276177;22;9826;-71
2021/10/03 08:04:25;;;;;;;;;14.00;14.00;;;;;16.47;44.89;102476.75;6276270;22;9667;-72
2021/10/03 08:07:20;;;;;;;;;14.25;14.25;;;;;16.33;44.85;102474.97;6274082;22;10384;-71
2021/10/03 08:10:16;;;;;;;;;16.75;15.25;;;;;16.39;44.90;102470.00;6276325;22;9499;-71
2021/10/03 08:13:12;;;;;;;;;21.00;20.00;;;;;16.22;44.83;102475.59;6276234;22;9676;-71
2021/10/03 08:16:08;;;;;;;;;17.33;17.33;;;;;16.34;44.94;102472.97;6273938;22;9581;-71
2021/10/03 08:19:04;;;;;;;;;20.00;20.00;;;;;16.47;44.79;102476.75;6276082;22;9259;-71
2021/10/03 08:22:00;;;;;;;;;20.00;20.00;;;;;16.63;44.23;102477.91;6276268;22;9472;-71
2021/10/03 08:24:55;;;;;;;;;18.00;17.67;;;;;16.08;44.64;102473.75;6276105;22;9406;-70
2021/10/03 08:27:51;;;;;;;;;18.25;17.75;;;;;15.94;45.24;102469.44;6275792;22;9351;-70
2021/10/03 08:30:47;;;;;;;;;16.33;16.33;;;;;15.92;45.73;102466.97;6276220;22;9423;-70
2021/10/03 08:33:42;;;;;;;;;14.33;13.33;;;;;16.19;45.19;102465.91;6276149;22;9177;-71
2021/10/03 08:36:38;;;;;;;;;23.75;19.75;;;;;16.26;45.47;102476.59;6276047;22;9395;-71
2021/10/03 08:39:34;;;;;;;;;16.00;16.00;;;;;16.25;45.87;102463.75;6276108;22;9406;-70
2021/10/03 08:42:29;;;;;;;;;16.25;16.25;;;;;16.27;45.83;102472.66;6276095;22;9558;-71
2021/10/03 08:45:25;;;;;;;;;26.75;24.50;;;;;16.44;46.00;102467.06;6276014;22;9482;-71
2021/10/03 08:48:21;;;;;;;;;27.00;24.75;;;;;16.18;46.51;102477.38;6275962;22;9603;-70
2021/10/03 08:51:17;;;;;;;;;22.00;19.25;;;;;15.96;46.14;102464.38;6275932;22;9817;-73
2021/10/03 08:54:15;;;;;;;;;24.25;24.25;;;;;15.90;46.72;102471.25;6273671;22;9971;-70
2021/10/03 08:57:10;;;;;;;;;18.50;18.50;;;;;16.03;45.88;102470.31;6275967;22;9666;-71
2021/10/03 09:00:12;;;;;;;;;20.00;17.75;;;;;15.90;45.98;102482.41;6275776;22;10190;-71
2021/10/03 09:03:08;;;;;;;;;17.50;17.50;;;;;15.80;46.24;102469.59;6276192;22;9719;-70
2021/10/03 09:06:03;;;;;;;;;35.50;27.75;;;;;15.78;46.81;102458.72;6275669;22;9482;-71
2021/10/03 09:08:59;;;;;;;;;17.50;17.50;;;;;15.87;46.17;102460.72;6275879;22;9929;-71
2021/10/03 09:11:54;;;;;;;;;24.00;23.00;;;;;16.12;45.61;102451.59;6275739;22;10402;-71
2021/10/03 09:14:50;;;;;;;;;25.25;24.50;;;;;16.22;45.24;102450.47;6275787;22;9885;-71
2021/10/03 09:17:54;;;;;;;;;16.00;16.00;;;;;16.63;43.96;102461.13;6275661;22;9723;-72
2021/10/03 09:20:50;;;;;;;;;19.75;17.75;;;;;16.27;43.55;102447.50;6275708;22;9476;-71
2021/10/03 09:24:01;;;;;;;;;19.50;19.50;;;;;16.46;42.73;102464.75;6275558;22;9488;-72
2021/10/03 09:27:06;;;;;;;;;9.00;9.00;;;;;16.33;42.88;102454.56;6275752;22;9675;-71
2021/10/03 09:30:06;;;;;;;;;16.50;16.50;;;;;16.26;43.44;102449.50;6275803;22;9245;-71
2021/10/03 09:33:02;;;;;;;;;21.50;21.00;;;;;16.43;42.60;102447.84;6275552;22;9524;-71
2021/10/03 09:36:00;;;;;;;;;18.00;16.00;;;;;16.57;42.65;102445.72;6275447;22;10319;-71
2021/10/03 09:39:08;;;;;;;;;19.00;18.75;;;;;16.45;41.75;102442.75;6275319;22;9348;-71
2021/10/03 09:42:12;;;;;;;;;7.67;7.67;;;;;16.48;41.04;102442.09;6278104;22;9561;-71
2021/10/03 09:45:15;;;;;;;;;12.00;12.00;;;;;16.76;40.74;102442.59;6275512;22;9299;-73
2021/10/03 09:48:10;;;;;;;;;8.00;7.50;;;;;16.96;40.35;102439.13;6277813;22;9263;-73
2021/10/03 09:51:06;;;;;;;;;12.00;11.33;;;;;17.03;40.10;102444.22;6277789;22;9655;-71
2021/10/03 09:54:03;;;;;;;;;18.67;17.33;;;;;16.88;40.38;102440.78;6277639;22;9132;-72
2021/10/03 09:56:59;;;;;;;;;13.33;13.00;;;;;16.93;40.41;102442.56;6278005;22;9336;-71
2021/10/03 09:59:56;;;;;;;;;9.33;9.33;;;;;16.67;40.00;102434.19;6277546;22;9102;-71
2021/10/03 10:02:52;;;;;;;;;10.00;10.00;;;;;16.81;40.04;102437.66;6277879;22;9024;-72
2021/10/03 10:05:48;;;;;;;;;6.33;6.33;;;;;16.73;40.20;102421.75;6294832;22;9050;-71
2021/10/03 10:08:45;;;;;;;;;17.33;17.33;;;;;17.04;40.20;102415.09;6275228;22;10128;-70
2021/10/03 10:11:53;;;;;;;;;22.00;21.00;;;;;17.24;40.45;102417.97;6277524;22;9227;-70
2021/10/03 10:14:57;;;;;;;;;14.67;14.67;;;;;17.08;39.53;102408.50;6277440;22;9695;-71
2021/10/03 10:17:53;;;;;;;;;51.25;42.25;;;;;17.14;40.14;102409.13;6277464;22;9091;-71
2021/10/03 10:20:50;;;;;;;;;31.50;30.50;;;;;16.97;39.55;102414.78;6277427;22;10428;-71
2021/10/03 10:23:45;;;;;;;;;15.33;14.67;;;;;17.44;38.94;102418.41;6277270;22;9647;-72
2021/10/03 10:26:41;;;;;;;;;17.33;17.00;;;;;17.44;38.76;102402.44;6275182;22;10117;-72
2021/10/03 10:29:48;;;;;;;;;14.25;14.25;;;;;17.70;38.27;102404.25;6277311;22;9118;-71
2021/10/03 10:32:56;;;;;;;;;10.00;10.00;;;;;17.70;38.51;102402.31;6275102;22;8809;-72
2021/10/03 10:36:15;;;;;;;;;13.67;13.67;;;;;17.92;37.81;102390.00;6276960;22;8838;-72
2021/10/03 10:39:12;;;;;;;;;12.75;12.50;;;;;18.09;37.06;102394.66;6276933;22;8935;-71
2021/10/03 10:42:25;;;;;;;;;15.50;15.25;;;;;18.14;36.79;102393.63;6277265;22;8801;-71
2021/10/03 10:45:36;;;;;;;;;13.00;13.00;;;;;18.20;36.55;102383.88;6277101;22;8813;-70
2021/10/03 10:48:32;;;;;;;;;14.25;14.25;;;;;18.19;36.55;102385.03;6274989;22;8847;-71
2021/10/03 10:51:27;;;;;;;;;6.75;6.75;;;;;18.47;35.64;102388.06;6276828;22;8809;-71
2021/10/03 10:54:23;;;;;;;;;10.25;10.25;;;;;18.55;36.15;102387.97;6277064;22;8957;-71
2021/10/03 10:57:19;;;;;;;;;8.00;8.00;;;;;18.47;35.45;102377.69;6277164;22;9561;-70
2021/10/03 11:00:18;;;;;;;;;15.25;15.25;;;;;18.27;36.25;102381.34;6276982;22;8806;-71
2021/10/03 11:03:14;;;;;;;;;28.00;28.00;;;;;18.44;35.71;102378.38;6276867;22;8872;-71
2021/10/03 11:06:22;;;;;;;;;22.33;21.33;;;;;18.26;35.52;102372.13;6274850;22;8934;-71
2021/10/03 11:09:17;;;;;;;;;16.00;15.50;;;;;18.27;35.18;102384.16;6276933;22;8882;-71
2021/10/03 11:12:13;;;;;;;;;17.00;14.75;;;;;18.17;34.98;102376.13;6277039;22;8964;-71
2021/10/03 11:15:31;;;;;;;;;9.25;9.25;;;;;18.39;34.81;102381.38;6274769;22;8847;-71
2021/10/03 11:18:26;;;;;;;;;2.00;2.00;;;;;18.78;33.47;102382.00;6278216;22;8778;-72
2021/10/03 11:21:34;;;;;;;;;14.50;14.50;;;;;18.66;34.44;102368.00;6276722;22;8790;-72
2021/10/03 11:24:32;;;;;;;;;19.75;19.75;;;;;18.79;33.49;102364.06;6276652;22;9368;-72
2021/10/03 11:27:30;;;;;;;;;13.25;13.25;;;;;18.52;33.37;102362.66;6276449;22;8794;-71
2021/10/03 11:30:26;;;;;;;;;11.50;10.75;;;;;18.39;33.13;102361.78;6276705;22;8809;-70
2021/10/03 11:33:21;;;;;;;;;7.50;7.50;;;;;18.75;32.97;102361.13;6276774;22;8948;-71
2021/10/03 11:36:17;;;;;;;;;5.00;5.00;;;;;18.93;32.58;102370.13;6276838;22;8786;-72
2021/10/03 11:39:13;;;;;;;;;7.00;6.00;;;;;18.84;32.50;102358.22;6274451;22;9613;-72
2021/10/03 11:42:15;;;;;;;;;6.75;6.00;;;;;18.95;32.02;102359.41;6276674;22;8786;-72
2021/10/03 11:45:14;;;;;;;;;6.25;5.50;;;;;18.87;32.23;102352.75;6274483;22;8800;-71
2021/10/03 11:48:10;;;;;;;;;8.50;7.50;;;;;18.85;31.83;102345.84;6276632;22;8817;-72
2021/10/03 11:51:05;;;;;;;;;10.75;10.75;;;;;18.75;32.45;102354.69;6276629;22;8895;-71
2021/10/03 11:54:01;;;;;;;;;16.75;16.25;;;;;18.53;32.80;102361.47;6276598;22;8794;-71
2021/10/03 11:56:57;;;;;;;;;11.75;11.00;;;;;18.26;31.92;102365.69;6276562;22;9635;-71
2021/10/03 12:00:05;;;;;;;;;14.75;12.25;;;;;18.27;32.51;102364.53;6276417;22;8859;-71
2021/10/03 12:03:06;;;;;;;;;11.00;11.00;;;;;18.16;32.41;102364.13;6273649;22;8908;-70
2021/10/03 12:06:30;;;;;;;;;10.50;10.50;;;;;18.01;32.51;102375.94;6276391;22;8814;-71
2021/10/03 12:09:27;;;;;;;;;21.00;16.33;;;;;17.63;32.93;102370.41;6276335;22;8822;-71
2021/10/03 12:12:48;;;;;;;;;13.75;12.25;;;;;17.76;32.69;102384.19;6276497;22;8955;-72
2021/10/03 12:15:49;;;;;;;;;16.67;16.67;;;;;17.56;33.38;102375.72;6276361;22;8794;-72
2021/10/03 12:18:47;;;;;;;;;18.00;16.67;;;;;17.71;33.60;102373.19;6276425;22;8943;-72
2021/10/03 12:21:43;;;;;;;;;18.00;18.00;;;;;17.77;33.89;102377.41;6276325;22;9100;-71
2021/10/03 12:24:39;;;;;;;;;15.25;15.25;;;;;17.55;33.78;102374.06;6274124;22;9017;-71
2021/10/03 12:27:34;;;;;;;;;24.33;20.33;;;;;17.51;33.67;102388.75;6276264;22;8786;-71
2021/10/03 12:30:54;;;;;;;;;18.50;17.75;;;;;17.54;34.26;102373.25;6276383;22;9027;-70
2021/10/03 12:33:49;;;;;;;;;20.00;19.33;;;;;17.65;34.46;102379.28;6274064;22;8816;-71
2021/10/03 12:36:54;;;;;;;;;21.67;21.67;;;;;17.86;34.88;102382.13;6276692;22;9215;-71
2021/10/03 12:39:52;;;;;;;;;9.50;9.50;;;;;17.69;34.57;102383.03;6276148;22;9114;-71
2021/10/03 12:42:47;;;;;;;;;6.50;6.50;;;;;17.56;34.56;102386.91;6276173;22;8796;-71
2021/10/03 12:45:43;;;;;;;;;7.00;7.00;;;;;17.75;34.57;102390.13;6275997;22;8786;-71
2021/10/03 12:48:39;;;;;;;;;9.50;8.50;;;;;17.56;34.97;102384.94;6276075;22;8778;-71
2021/10/03 12:51:34;;;;;;;;;19.67;19.00;;;;;17.59;35.20;102389.03;6276150;22;8790;-71
2021/10/03 12:54:31;;;;;;;;;25.33;20.67;;;;;17.69;34.97;102381.06;6275907;22;8878;-72
2021/10/03 12:57:27;;;;;;;;;21.33;20.00;;;;;17.70;35.62;102382.72;6273759;22;9059;-71
2021/10/03 13:00:22;;;;;;;;;44.75;37.50;;;;;17.90;35.27;102378.34;6273947;22;9705;-72
2021/10/03 13:03:18;;;;;;;;;52.25;44.25;;;;;17.90;35.02;102372.72;6273711;22;9575;-72
2021/10/03 13:06:13;;;;;;;;;40.50;35.00;;;;;17.82;35.12;102375.59;6275765;22;10309;-71
2021/10/03 13:09:09;;;;;;;;;44.00;38.00;;;;;17.94;35.22;102367.25;6273925;22;9760;-72
2021/10/03 13:12:05;;;;;;;;;41.25;37.00;;;;;17.80;35.18;102366.72;6276095;22;10297;-74
2021/10/03 13:15:00;;;;;;;;;32.00;31.00;;;;;17.93;34.69;102369.25;6273480;22;9656;-74
2021/10/03 13:17:56;;;;;;;;;18.33;17.00;;;;;17.83;34.74;102364.06;6275552;22;9499;-71
2021/10/03 13:20:51;;;;;;;;;19.00;19.00;;;;;17.86;35.31;102371.75;6273615;22;8909;-70
2021/10/03 13:23:47;;;;;;;;;13.75;13.50;;;;;17.70;35.06;102368.75;6275792;22;8907;-71
2021/10/03 13:26:43;;;;;;;;;22.67;21.67;;;;;17.75;35.03;102367.72;6275814;22;8913;-70
2021/10/03 13:29:38;;;;;;;;;16.67;16.00;;;;;17.60;35.11;102365.50;6275834;22;9083;-70
2021/10/03 13:32:34;;;;;;;;;18.67;18.67;;;;;17.61;35.04;102359.56;6275865;22;8970;-71